sensor_id;sensor_type;location;lat;lon;timestamp;noise_LAeq;noise_LA_min;noise_LA_max;noise_LA01;noise_LA95
68599;Laerm;18038;50.166;18.908;2023-04-24T00:01:24;48.08;46.52;57.21;;
68599;Laerm;18038;50.166;18.908;2023-04-24T00:04:32;48.21;46.43;59.25;;
68599;Laerm;18038;50.166;18.908;2023-04-24T00:07:38;48.01;46.24;56.32;;
68599;Laerm;18038;50.166;18.908;2023-04-24T00:10:47;47.67;46.44;49.71;;
68599;Laerm;18038;50.166;18.908;2023-04-24T00:13:53;48.21;46.45;54.91;;
68599;Laerm;18038;50.166;18.908;2023-04-24T00:17:03;48.34;46.53;59.40;;
68599;Laerm;18038;50.166;18.908;2023-04-24T00:20:11;47.84;46.49;52.96;;
68599;Laerm;18038;50.166;18.908;2023-04-24T00:23:17;48.07;46.69;54.44;;
68599;Laerm;18038;50.166;18.908;2023-04-24T00:26:24;47.91;46.51;52.33;;
68599;Laerm;18038;50.166;18.908;2023-04-24T00:29:30;47.87;46.51;50.29;;
68599;Laerm;18038;50.166;18.908;2023-04-24T00:32:40;47.84;46.15;50.51;;
68599;Laerm;18038;50.166;18.908;2023-04-24T00:35:46;47.80;46.44;50.27;;
68599;Laerm;18038;50.166;18.908;2023-04-24T00:38:53;47.81;46.50;51.62;;
68599;Laerm;18038;50.166;18.908;2023-04-24T00:41:59;48.01;46.47;51.08;;
68599;Laerm;18038;50.166;18.908;2023-04-24T00:45:07;47.94;46.63;50.46;;
68599;Laerm;18038;50.166;18.908;2023-04-24T00:48:16;47.94;46.66;50.47;;
68599;Laerm;18038;50.166;18.908;2023-04-24T00:51:23;47.85;46.46;50.18;;
68599;Laerm;18038;50.166;18.908;2023-04-24T00:54:30;48.36;46.70;57.27;;
68599;Laerm;18038;50.166;18.908;2023-04-24T00:57:37;47.97;46.64;50.55;;
68599;Laerm;18038;50.166;18.908;2023-04-24T01:00:44;48.01;46.52;50.34;;
68599;Laerm;18038;50.166;18.908;2023-04-24T01:03:56;48.34;46.72;56.79;;
68599;Laerm;18038;50.166;18.908;2023-04-24T01:07:04;47.99;46.43;50.99;;
68599;Laerm;18038;50.166;18.908;2023-04-24T01:10:15;47.87;46.51;50.78;;
68599;Laerm;18038;50.166;18.908;2023-04-24T01:13:23;48.35;46.50;58.69;;
68599;Laerm;18038;50.166;18.908;2023-04-24T01:16:30;47.98;46.69;54.98;;
68599;Laerm;18038;50.166;18.908;2023-04-24T01:19:39;48.25;46.53;54.95;;
68599;Laerm;18038;50.166;18.908;2023-04-24T01:22:51;48.38;46.44;56.45;;
68599;Laerm;18038;50.166;18.908;2023-04-24T01:25:58;48.15;46.34;54.89;;
68599;Laerm;18038;50.166;18.908;2023-04-24T01:29:05;48.68;46.26;58.72;;
68599;Laerm;18038;50.166;18.908;2023-04-24T01:32:14;48.37;46.53;56.42;;
68599;Laerm;18038;50.166;18.908;2023-04-24T01:35:21;48.08;46.52;58.12;;
68599;Laerm;18038;50.166;18.908;2023-04-24T01:38:29;48.50;46.59;61.18;;
68599;Laerm;18038;50.166;18.908;2023-04-24T01:41:36;48.19;46.58;55.55;;
68599;Laerm;18038;50.166;18.908;2023-04-24T01:44:42;49.29;46.59;58.22;;
68599;Laerm;18038;50.166;18.908;2023-04-24T01:47:51;47.80;46.52;51.99;;
68599;Laerm;18038;50.166;18.908;2023-04-24T01:50:59;48.97;46.55;60.67;;
68599;Laerm;18038;50.166;18.908;2023-04-24T01:54:09;48.61;46.72;58.52;;
68599;Laerm;18038;50.166;18.908;2023-04-24T01:57:16;49.18;46.61;59.87;;
68599;Laerm;18038;50.166;18.908;2023-04-24T02:00:24;48.97;46.71;60.16;;
68599;Laerm;18038;50.166;18.908;2023-04-24T02:03:30;48.70;46.56;58.39;;
68599;Laerm;18038;50.166;18.908;2023-04-24T02:06:37;48.12;46.56;52.63;;
68599;Laerm;18038;50.166;18.908;2023-04-24T02:09:46;48.81;46.60;57.99;;
68599;Laerm;18038;50.166;18.908;2023-04-24T02:12:53;48.73;46.88;56.67;;
68599;Laerm;18038;50.166;18.908;2023-04-24T02:15:59;51.85;46.85;67.48;;
68599;Laerm;18038;50.166;18.908;2023-04-24T02:19:06;49.07;46.59;60.36;;
68599;Laerm;18038;50.166;18.908;2023-04-24T02:22:12;49.11;46.60;56.68;;
68599;Laerm;18038;50.166;18.908;2023-04-24T02:25:22;47.86;46.29;51.67;;
68599;Laerm;18038;50.166;18.908;2023-04-24T02:28:30;49.15;46.33;57.92;;
68599;Laerm;18038;50.166;18.908;2023-04-24T02:31:37;47.71;46.31;52.13;;
68599;Laerm;18038;50.166;18.908;2023-04-24T02:34:43;48.64;46.51;55.62;;
68599;Laerm;18038;50.166;18.908;2023-04-24T02:37:50;48.59;46.40;55.74;;
68599;Laerm;18038;50.166;18.908;2023-04-24T02:40:59;49.24;46.33;57.20;;
68599;Laerm;18038;50.166;18.908;2023-04-24T02:44:09;50.03;46.37;60.52;;
68599;Laerm;18038;50.166;18.908;2023-04-24T02:47:16;49.51;46.73;57.89;;
68599;Laerm;18038;50.166;18.908;2023-04-24T02:50:25;50.18;46.82;59.00;;
68599;Laerm;18038;50.166;18.908;2023-04-24T02:53:31;50.30;46.70;61.02;;
68599;Laerm;18038;50.166;18.908;2023-04-24T02:56:41;51.28;46.65;62.42;;
68599;Laerm;18038;50.166;18.908;2023-04-24T02:59:47;52.64;46.52;65.00;;
68599;Laerm;18038;50.166;18.908;2023-04-24T03:02:54;51.48;46.64;66.00;;
68599;Laerm;18038;50.166;18.908;2023-04-24T03:06:00;50.94;46.59;62.38;;
68599;Laerm;18038;50.166;18.908;2023-04-24T03:09:09;52.08;46.61;65.15;;
68599;Laerm;18038;50.166;18.908;2023-04-24T03:12:18;53.59;46.83;66.05;;
68599;Laerm;18038;50.166;18.908;2023-04-24T03:15:27;52.12;46.77;61.18;;
68599;Laerm;18038;50.166;18.908;2023-04-24T03:18:33;54.22;46.67;68.34;;
68599;Laerm;18038;50.166;18.908;2023-04-24T03:21:42;51.56;47.23;63.53;;
68599;Laerm;18038;50.166;18.908;2023-04-24T03:24:48;55.99;46.99;67.99;;
68599;Laerm;18038;50.166;18.908;2023-04-24T03:27:58;53.75;46.84;66.89;;
68599;Laerm;18038;50.166;18.908;2023-04-24T03:31:13;54.38;47.13;67.60;;
68599;Laerm;18038;50.166;18.908;2023-04-24T03:34:20;53.79;47.16;64.99;;
68599;Laerm;18038;50.166;18.908;2023-04-24T03:37:27;52.31;47.31;61.10;;
68599;Laerm;18038;50.166;18.908;2023-04-24T03:40:54;52.88;47.47;66.36;;
68599;Laerm;18038;50.166;18.908;2023-04-24T03:44:25;51.77;47.44;60.64;;
68599;Laerm;18038;50.166;18.908;2023-04-24T03:47:32;52.25;47.38;62.74;;
68599;Laerm;18038;50.166;18.908;2023-04-24T03:50:40;51.58;46.97;58.70;;
68599;Laerm;18038;50.166;18.908;2023-04-24T03:53:49;52.59;47.49;61.10;;
68599;Laerm;18038;50.166;18.908;2023-04-24T03:56:57;51.96;46.98;61.93;;
68599;Laerm;18038;50.166;18.908;2023-04-24T04:00:12;51.31;46.89;63.08;;
68599;Laerm;18038;50.166;18.908;2023-04-24T04:03:23;52.86;46.73;67.47;;
68599;Laerm;18038;50.166;18.908;2023-04-24T04:06:30;52.55;46.98;67.25;;
68599;Laerm;18038;50.166;18.908;2023-04-24T04:09:36;53.09;47.22;66.57;;
68599;Laerm;18038;50.166;18.908;2023-04-24T04:12:44;52.54;47.64;66.21;;
68599;Laerm;18038;50.166;18.908;2023-04-24T04:15:53;51.38;47.44;59.13;;
68599;Laerm;18038;50.166;18.908;2023-04-24T04:19:00;51.76;46.86;61.24;;
68599;Laerm;18038;50.166;18.908;2023-04-24T04:22:06;52.66;47.59;61.38;;
68599;Laerm;18038;50.166;18.908;2023-04-24T04:25:22;52.82;47.30;70.44;;
68599;Laerm;18038;50.166;18.908;2023-04-24T04:28:29;51.75;47.09;59.50;;
68599;Laerm;18038;50.166;18.908;2023-04-24T04:31:40;52.75;47.19;64.65;;
68599;Laerm;18038;50.166;18.908;2023-04-24T04:34:49;52.67;47.63;60.65;;
68599;Laerm;18038;50.166;18.908;2023-04-24T04:38:02;53.75;46.86;64.31;;
68599;Laerm;18038;50.166;18.908;2023-04-24T04:41:21;53.10;47.21;67.02;;
68599;Laerm;18038;50.166;18.908;2023-04-24T04:44:29;52.89;47.44;60.49;;
68599;Laerm;18038;50.166;18.908;2023-04-24T04:47:38;53.72;47.71;65.67;;
68599;Laerm;18038;50.166;18.908;2023-04-24T04:50:46;53.20;47.91;61.15;;
68599;Laerm;18038;50.166;18.908;2023-04-24T04:53:53;53.48;48.10;63.40;;
68599;Laerm;18038;50.166;18.908;2023-04-24T04:57:00;53.51;47.84;62.59;;
68599;Laerm;18038;50.166;18.908;2023-04-24T05:00:09;53.68;47.60;68.00;;
68599;Laerm;18038;50.166;18.908;2023-04-24T05:03:26;53.33;47.31;62.81;;
68599;Laerm;18038;50.166;18.908;2023-04-24T05:06:38;52.75;47.06;60.16;;
68599;Laerm;18038;50.166;18.908;2023-04-24T05:09:45;53.87;47.61;65.70;;
68599;Laerm;18038;50.166;18.908;2023-04-24T05:12:51;54.53;47.23;66.71;;
68599;Laerm;18038;50.166;18.908;2023-04-24T05:15:58;54.38;47.53;66.68;;
68599;Laerm;18038;50.166;18.908;2023-04-24T05:19:27;52.84;47.29;63.99;;
68599;Laerm;18038;50.166;18.908;2023-04-24T05:22:36;54.51;47.73;73.10;;
68599;Laerm;18038;50.166;18.908;2023-04-24T05:25:46;53.75;47.45;67.20;;
68599;Laerm;18038;50.166;18.908;2023-04-24T05:28:56;52.79;47.15;62.50;;
68599;Laerm;18038;50.166;18.908;2023-04-24T05:32:15;52.27;47.18;58.90;;
68599;Laerm;18038;50.166;18.908;2023-04-24T05:35:25;52.73;47.65;59.57;;
68599;Laerm;18038;50.166;18.908;2023-04-24T05:38:31;52.59;47.30;61.21;;
68599;Laerm;18038;50.166;18.908;2023-04-24T05:41:38;54.33;47.73;61.73;;
68599;Laerm;18038;50.166;18.908;2023-04-24T05:44:44;55.14;49.46;60.92;;
68599;Laerm;18038;50.166;18.908;2023-04-24T05:47:52;53.84;47.40;61.37;;
68599;Laerm;18038;50.166;18.908;2023-04-24T05:51:01;53.48;47.83;60.56;;
68599;Laerm;18038;50.166;18.908;2023-04-24T05:54:08;53.77;48.23;69.48;;
68599;Laerm;18038;50.166;18.908;2023-04-24T05:57:16;53.75;49.28;60.79;;
68599;Laerm;18038;50.166;18.908;2023-04-24T06:00:53;53.30;47.80;61.71;;
68599;Laerm;18038;50.166;18.908;2023-04-24T06:04:02;53.94;47.59;61.93;;
68599;Laerm;18038;50.166;18.908;2023-04-24T06:07:12;53.81;47.70;65.36;;
68599;Laerm;18038;50.166;18.908;2023-04-24T06:10:19;53.78;48.09;61.46;;
68599;Laerm;18038;50.166;18.908;2023-04-24T06:13:26;54.90;47.24;68.75;;
68599;Laerm;18038;50.166;18.908;2023-04-24T06:16:51;53.27;47.33;61.82;;
68599;Laerm;18038;50.166;18.908;2023-04-24T06:20:09;54.33;46.93;70.49;;
68599;Laerm;18038;50.166;18.908;2023-04-24T06:23:18;53.18;47.32;65.64;;
68599;Laerm;18038;50.166;18.908;2023-04-24T06:26:25;54.41;47.42;73.90;;
68599;Laerm;18038;50.166;18.908;2023-04-24T06:29:33;61.90;47.63;89.28;;
68599;Laerm;18038;50.166;18.908;2023-04-24T06:32:51;53.81;47.21;66.16;;
68599;Laerm;18038;50.166;18.908;2023-04-24T06:36:05;53.65;47.57;62.39;;
68599;Laerm;18038;50.166;18.908;2023-04-24T06:39:14;51.52;47.07;64.62;;
68599;Laerm;18038;50.166;18.908;2023-04-24T06:42:20;53.70;47.48;66.91;;
68599;Laerm;18038;50.166;18.908;2023-04-24T06:45:28;53.42;47.04;66.32;;
68599;Laerm;18038;50.166;18.908;2023-04-24T06:48:34;57.91;47.15;85.31;;
68599;Laerm;18038;50.166;18.908;2023-04-24T06:51:42;52.64;47.25;63.71;;
68599;Laerm;18038;50.166;18.908;2023-04-24T06:54:51;52.85;47.07;60.75;;
68599;Laerm;18038;50.166;18.908;2023-04-24T06:57:58;52.55;47.01;61.19;;
68599;Laerm;18038;50.166;18.908;2023-04-24T07:01:10;51.50;47.14;58.53;;
68599;Laerm;18038;50.166;18.908;2023-04-24T07:04:17;51.25;47.11;61.63;;
68599;Laerm;18038;50.166;18.908;2023-04-24T07:07:24;52.34;47.20;60.31;;
68599;Laerm;18038;50.166;18.908;2023-04-24T07:10:34;51.77;47.19;62.36;;
68599;Laerm;18038;50.166;18.908;2023-04-24T07:13:40;52.13;47.01;61.41;;
68599;Laerm;18038;50.166;18.908;2023-04-24T07:16:48;51.47;47.14;58.66;;
68599;Laerm;18038;50.166;18.908;2023-04-24T07:19:54;52.08;47.13;62.42;;
68599;Laerm;18038;50.166;18.908;2023-04-24T07:23:02;51.85;47.09;65.37;;
68599;Laerm;18038;50.166;18.908;2023-04-24T07:26:11;51.69;47.14;63.26;;
68599;Laerm;18038;50.166;18.908;2023-04-24T07:29:18;52.45;47.22;65.58;;
68599;Laerm;18038;50.166;18.908;2023-04-24T07:32:28;52.50;47.50;64.80;;
68599;Laerm;18038;50.166;18.908;2023-04-24T07:35:35;52.26;47.07;65.64;;
68599;Laerm;18038;50.166;18.908;2023-04-24T07:38:41;51.38;46.76;65.77;;
68599;Laerm;18038;50.166;18.908;2023-04-24T07:41:51;52.49;46.68;68.31;;
68599;Laerm;18038;50.166;18.908;2023-04-24T07:44:57;51.91;46.81;63.40;;
68599;Laerm;18038;50.166;18.908;2023-04-24T07:48:04;52.54;46.90;63.49;;
68599;Laerm;18038;50.166;18.908;2023-04-24T07:51:11;51.48;46.99;58.42;;
68599;Laerm;18038;50.166;18.908;2023-04-24T07:54:18;52.36;46.44;60.92;;
68599;Laerm;18038;50.166;18.908;2023-04-24T07:57:27;51.08;46.88;58.18;;
68599;Laerm;18038;50.166;18.908;2023-04-24T08:00:36;51.76;47.13;59.76;;
68599;Laerm;18038;50.166;18.908;2023-04-24T08:03:42;58.37;47.01;79.97;;
68599;Laerm;18038;50.166;18.908;2023-04-24T08:06:49;51.12;47.20;61.57;;
68599;Laerm;18038;50.166;18.908;2023-04-24T08:09:55;52.27;47.16;62.65;;
68599;Laerm;18038;50.166;18.908;2023-04-24T08:13:05;52.38;47.28;61.78;;
68599;Laerm;18038;50.166;18.908;2023-04-24T08:16:12;50.99;47.03;58.99;;
68599;Laerm;18038;50.166;18.908;2023-04-24T08:19:19;52.36;47.20;60.55;;
68599;Laerm;18038;50.166;18.908;2023-04-24T08:22:25;52.05;47.48;60.24;;
68599;Laerm;18038;50.166;18.908;2023-04-24T08:25:31;51.54;47.20;59.50;;
68599;Laerm;18038;50.166;18.908;2023-04-24T08:28:40;51.75;47.08;64.43;;
68599;Laerm;18038;50.166;18.908;2023-04-24T08:31:47;51.85;47.21;61.60;;
68599;Laerm;18038;50.166;18.908;2023-04-24T08:34:53;52.73;47.30;62.89;;
68599;Laerm;18038;50.166;18.908;2023-04-24T08:38:00;50.90;47.00;59.72;;
68599;Laerm;18038;50.166;18.908;2023-04-24T08:41:09;51.52;46.95;70.66;;
68599;Laerm;18038;50.166;18.908;2023-04-24T08:44:20;51.46;47.10;59.99;;
68599;Laerm;18038;50.166;18.908;2023-04-24T08:47:28;50.10;46.68;63.54;;
68599;Laerm;18038;50.166;18.908;2023-04-24T08:50:37;53.87;46.94;70.00;;
68599;Laerm;18038;50.166;18.908;2023-04-24T08:53:46;50.95;46.65;59.65;;
68599;Laerm;18038;50.166;18.908;2023-04-24T08:56:59;51.70;47.01;64.62;;
68599;Laerm;18038;50.166;18.908;2023-04-24T09:00:11;51.84;47.15;58.50;;
68599;Laerm;18038;50.166;18.908;2023-04-24T09:03:20;51.20;46.93;59.21;;
68599;Laerm;18038;50.166;18.908;2023-04-24T09:06:28;53.47;47.44;65.64;;
68599;Laerm;18038;50.166;18.908;2023-04-24T09:09:38;51.93;46.76;61.45;;
68599;Laerm;18038;50.166;18.908;2023-04-24T09:12:46;51.31;46.84;59.59;;
68599;Laerm;18038;50.166;18.908;2023-04-24T09:15:56;52.52;47.08;62.49;;
68599;Laerm;18038;50.166;18.908;2023-04-24T09:19:03;58.56;47.06;72.06;;
68599;Laerm;18038;50.166;18.908;2023-04-24T09:22:11;51.07;46.80;58.14;;
68599;Laerm;18038;50.166;18.908;2023-04-24T09:25:18;52.22;46.98;65.10;;
68599;Laerm;18038;50.166;18.908;2023-04-24T09:28:31;52.04;47.40;60.46;;
68599;Laerm;18038;50.166;18.908;2023-04-24T09:31:40;53.88;47.12;68.38;;
68599;Laerm;18038;50.166;18.908;2023-04-24T09:34:48;55.56;46.87;77.41;;
68599;Laerm;18038;50.166;18.908;2023-04-24T09:37:57;51.76;47.07;60.10;;
68599;Laerm;18038;50.166;18.908;2023-04-24T09:41:07;51.17;47.10;58.62;;
68599;Laerm;18038;50.166;18.908;2023-04-24T09:44:16;53.43;46.94;65.49;;
68599;Laerm;18038;50.166;18.908;2023-04-24T09:47:27;56.17;46.98;77.25;;
68599;Laerm;18038;50.166;18.908;2023-04-24T09:50:34;51.85;46.94;62.53;;
68599;Laerm;18038;50.166;18.908;2023-04-24T09:53:46;57.39;46.90;77.57;;
68599;Laerm;18038;50.166;18.908;2023-04-24T09:56:58;51.49;47.42;58.00;;
68599;Laerm;18038;50.166;18.908;2023-04-24T10:00:09;51.95;47.12;61.47;;
68599;Laerm;18038;50.166;18.908;2023-04-24T10:03:18;53.85;48.00;61.71;;
68599;Laerm;18038;50.166;18.908;2023-04-24T10:06:32;62.86;48.68;77.28;;
68599;Laerm;18038;50.166;18.908;2023-04-24T10:09:39;61.13;47.32;73.10;;
68599;Laerm;18038;50.166;18.908;2023-04-24T10:12:47;59.94;47.37;72.11;;
68599;Laerm;18038;50.166;18.908;2023-04-24T10:15:54;60.55;46.90;73.44;;
68599;Laerm;18038;50.166;18.908;2023-04-24T10:19:06;59.17;47.02;70.76;;
68599;Laerm;18038;50.166;18.908;2023-04-24T10:22:14;60.27;46.85;76.18;;
68599;Laerm;18038;50.166;18.908;2023-04-24T10:25:25;58.84;46.84;69.34;;
68599;Laerm;18038;50.166;18.908;2023-04-24T10:28:33;55.42;46.94;71.13;;
68599;Laerm;18038;50.166;18.908;2023-04-24T10:31:42;54.66;46.96;72.67;;
68599;Laerm;18038;50.166;18.908;2023-04-24T10:34:52;51.80;46.73;60.73;;
68599;Laerm;18038;50.166;18.908;2023-04-24T10:38:08;52.19;46.83;69.99;;
68599;Laerm;18038;50.166;18.908;2023-04-24T10:41:15;52.86;47.52;65.08;;
68599;Laerm;18038;50.166;18.908;2023-04-24T10:44:36;51.86;47.50;59.79;;
68599;Laerm;18038;50.166;18.908;2023-04-24T10:47:42;52.42;47.45;61.72;;
68599;Laerm;18038;50.166;18.908;2023-04-24T10:50:53;50.86;47.28;64.30;;
68599;Laerm;18038;50.166;18.908;2023-04-24T10:53:59;51.68;47.15;62.10;;
68599;Laerm;18038;50.166;18.908;2023-04-24T10:57:27;51.59;46.91;62.03;;
68599;Laerm;18038;50.166;18.908;2023-04-24T11:00:37;51.27;46.81;61.33;;
68599;Laerm;18038;50.166;18.908;2023-04-24T11:03:55;53.20;46.85;68.53;;
68599;Laerm;18038;50.166;18.908;2023-04-24T11:07:05;52.20;46.74;62.78;;
68599;Laerm;18038;50.166;18.908;2023-04-24T11:10:25;52.44;47.06;68.67;;
68599;Laerm;18038;50.166;18.908;2023-04-24T11:14:07;52.75;47.08;61.34;;
68599;Laerm;18038;50.166;18.908;2023-04-24T11:17:29;51.13;46.79;64.21;;
68599;Laerm;18038;50.166;18.908;2023-04-24T11:20:38;50.98;47.12;57.04;;
68599;Laerm;18038;50.166;18.908;2023-04-24T11:23:50;50.89;46.97;58.77;;
68599;Laerm;18038;50.166;18.908;2023-04-24T11:27:00;52.25;47.09;61.25;;
68599;Laerm;18038;50.166;18.908;2023-04-24T11:30:12;51.55;46.97;58.60;;
68599;Laerm;18038;50.166;18.908;2023-04-24T11:33:26;50.88;46.97;58.19;;
68599;Laerm;18038;50.166;18.908;2023-04-24T11:36:46;52.38;46.74;68.75;;
68599;Laerm;18038;50.166;18.908;2023-04-24T11:39:58;53.32;47.29;67.79;;
68599;Laerm;18038;50.166;18.908;2023-04-24T11:43:06;53.78;47.20;74.19;;
68599;Laerm;18038;50.166;18.908;2023-04-24T11:46:16;51.65;47.24;61.94;;
68599;Laerm;18038;50.166;18.908;2023-04-24T11:49:24;51.80;47.12;62.90;;
68599;Laerm;18038;50.166;18.908;2023-04-24T11:52:31;53.39;47.47;72.43;;
68599;Laerm;18038;50.166;18.908;2023-04-24T11:55:43;57.11;48.03;75.66;;
68599;Laerm;18038;50.166;18.908;2023-04-24T11:58:52;55.83;47.84;66.78;;
68599;Laerm;18038;50.166;18.908;2023-04-24T12:01:59;52.32;47.43;64.27;;
68599;Laerm;18038;50.166;18.908;2023-04-24T12:05:07;53.93;47.42;69.52;;
68599;Laerm;18038;50.166;18.908;2023-04-24T12:08:27;55.62;47.49;73.16;;
68599;Laerm;18038;50.166;18.908;2023-04-24T12:11:52;53.87;47.36;69.46;;
68599;Laerm;18038;50.166;18.908;2023-04-24T12:15:05;56.11;47.54;71.34;;
68599;Laerm;18038;50.166;18.908;2023-04-24T12:18:17;53.97;47.80;67.26;;
68599;Laerm;18038;50.166;18.908;2023-04-24T12:21:23;53.65;47.94;69.60;;
68599;Laerm;18038;50.166;18.908;2023-04-24T12:25:00;54.00;47.48;67.66;;
68599;Laerm;18038;50.166;18.908;2023-04-24T12:28:13;54.92;47.38;66.77;;
68599;Laerm;18038;50.166;18.908;2023-04-24T12:31:21;53.60;47.51;73.15;;
68599;Laerm;18038;50.166;18.908;2023-04-24T12:34:28;53.65;47.73;65.69;;
68599;Laerm;18038;50.166;18.908;2023-04-24T12:37:37;56.88;47.64;83.43;;
68599;Laerm;18038;50.166;18.908;2023-04-24T12:41:03;56.48;47.52;77.56;;
68599;Laerm;18038;50.166;18.908;2023-04-24T12:44:13;55.86;47.72;73.47;;
68599;Laerm;18038;50.166;18.908;2023-04-24T12:47:20;54.22;47.74;77.52;;
68599;Laerm;18038;50.166;18.908;2023-04-24T12:50:26;55.72;47.65;74.37;;
68599;Laerm;18038;50.166;18.908;2023-04-24T12:53:32;54.17;47.53;67.71;;
68599;Laerm;18038;50.166;18.908;2023-04-24T12:56:38;53.96;47.84;70.09;;
68599;Laerm;18038;50.166;18.908;2023-04-24T12:59:48;53.42;47.70;68.04;;
68599;Laerm;18038;50.166;18.908;2023-04-24T13:02:54;55.42;47.27;67.90;;
68599;Laerm;18038;50.166;18.908;2023-04-24T13:06:04;53.73;47.73;66.54;;
68599;Laerm;18038;50.166;18.908;2023-04-24T13:09:10;54.74;47.36;73.66;;
68599;Laerm;18038;50.166;18.908;2023-04-24T13:12:18;54.30;47.88;74.65;;
68599;Laerm;18038;50.166;18.908;2023-04-24T13:15:35;53.67;47.99;67.95;;
68599;Laerm;18038;50.166;18.908;2023-04-24T13:18:42;53.20;47.66;61.25;;
68599;Laerm;18038;50.166;18.908;2023-04-24T13:21:48;53.87;47.23;73.42;;
68599;Laerm;18038;50.166;18.908;2023-04-24T13:24:55;53.40;47.55;68.62;;
68599;Laerm;18038;50.166;18.908;2023-04-24T13:28:02;53.44;47.94;67.87;;
68599;Laerm;18038;50.166;18.908;2023-04-24T13:31:12;52.11;47.70;63.60;;
68599;Laerm;18038;50.166;18.908;2023-04-24T13:34:19;53.71;47.64;65.99;;
68599;Laerm;18038;50.166;18.908;2023-04-24T13:37:26;52.61;47.63;60.03;;
68599;Laerm;18038;50.166;18.908;2023-04-24T13:40:44;52.96;48.51;63.90;;
68599;Laerm;18038;50.166;18.908;2023-04-24T13:43:51;52.05;48.43;64.73;;
68599;Laerm;18038;50.166;18.908;2023-04-24T13:47:00;51.44;47.97;59.47;;
68599;Laerm;18038;50.166;18.908;2023-04-24T13:50:08;51.98;48.51;59.91;;
68599;Laerm;18038;50.166;18.908;2023-04-24T13:53:15;52.35;48.76;68.44;;
68599;Laerm;18038;50.166;18.908;2023-04-24T13:56:22;52.05;48.41;66.35;;
68599;Laerm;18038;50.166;18.908;2023-04-24T13:59:28;51.47;48.44;62.73;;
68599;Laerm;18038;50.166;18.908;2023-04-24T14:02:38;51.36;47.90;65.88;;
68599;Laerm;18038;50.166;18.908;2023-04-24T14:05:44;52.38;48.47;69.90;;
68599;Laerm;18038;50.166;18.908;2023-04-24T14:08:51;53.12;48.71;67.09;;
68599;Laerm;18038;50.166;18.908;2023-04-24T14:11:57;54.33;48.16;75.06;;
68599;Laerm;18038;50.166;18.908;2023-04-24T14:15:11;53.65;48.49;68.42;;
68599;Laerm;18038;50.166;18.908;2023-04-24T14:18:20;55.38;48.49;72.55;;
68599;Laerm;18038;50.166;18.908;2023-04-24T14:21:27;60.66;48.22;80.98;;
68599;Laerm;18038;50.166;18.908;2023-04-24T14:24:33;57.04;48.36;71.80;;
68599;Laerm;18038;50.166;18.908;2023-04-24T14:27:40;56.89;47.77;76.35;;
68599;Laerm;18038;50.166;18.908;2023-04-24T14:30:46;54.11;47.99;68.59;;
68599;Laerm;18038;50.166;18.908;2023-04-24T14:33:55;56.38;48.94;70.64;;
68599;Laerm;18038;50.166;18.908;2023-04-24T14:37:02;53.87;48.01;68.97;;
68599;Laerm;18038;50.166;18.908;2023-04-24T14:40:10;55.57;47.98;75.62;;
68599;Laerm;18038;50.166;18.908;2023-04-24T14:43:41;55.28;47.89;72.01;;
68599;Laerm;18038;50.166;18.908;2023-04-24T14:46:49;53.92;47.97;69.28;;
68599;Laerm;18038;50.166;18.908;2023-04-24T14:49:58;53.17;47.99;64.28;;
68599;Laerm;18038;50.166;18.908;2023-04-24T14:53:07;52.87;47.95;67.46;;
68599;Laerm;18038;50.166;18.908;2023-04-24T14:56:14;54.96;47.93;74.34;;
68599;Laerm;18038;50.166;18.908;2023-04-24T14:59:21;54.07;48.04;67.25;;
68599;Laerm;18038;50.166;18.908;2023-04-24T15:02:27;53.65;48.00;63.88;;
68599;Laerm;18038;50.166;18.908;2023-04-24T15:05:37;53.23;48.08;65.68;;
68599;Laerm;18038;50.166;18.908;2023-04-24T15:08:43;53.70;47.60;69.92;;
68599;Laerm;18038;50.166;18.908;2023-04-24T15:11:53;52.68;47.80;64.40;;
68599;Laerm;18038;50.166;18.908;2023-04-24T15:14:59;53.26;47.53;67.44;;
68599;Laerm;18038;50.166;18.908;2023-04-24T15:18:07;53.38;47.83;69.23;;
68599;Laerm;18038;50.166;18.908;2023-04-24T15:21:18;54.31;47.73;66.76;;
68599;Laerm;18038;50.166;18.908;2023-04-24T15:24:25;53.64;47.44;71.92;;
68599;Laerm;18038;50.166;18.908;2023-04-24T15:27:40;52.82;47.69;65.01;;
68599;Laerm;18038;50.166;18.908;2023-04-24T15:30:47;53.42;48.21;64.26;;
68599;Laerm;18038;50.166;18.908;2023-04-24T15:33:53;52.08;47.63;64.23;;
68599;Laerm;18038;50.166;18.908;2023-04-24T15:37:06;52.14;47.56;64.51;;
68599;Laerm;18038;50.166;18.908;2023-04-24T15:40:13;52.61;47.48;64.46;;
68599;Laerm;18038;50.166;18.908;2023-04-24T15:43:26;53.82;48.61;62.10;;
68599;Laerm;18038;50.166;18.908;2023-04-24T15:46:34;54.00;47.97;65.09;;
68599;Laerm;18038;50.166;18.908;2023-04-24T15:49:42;53.25;47.71;62.28;;
68599;Laerm;18038;50.166;18.908;2023-04-24T15:52:50;52.44;47.55;60.76;;
68599;Laerm;18038;50.166;18.908;2023-04-24T15:55:57;52.69;47.77;61.35;;
68599;Laerm;18038;50.166;18.908;2023-04-24T15:59:05;53.24;48.16;66.50;;
68599;Laerm;18038;50.166;18.908;2023-04-24T16:02:14;52.25;47.69;62.18;;
68599;Laerm;18038;50.166;18.908;2023-04-24T16:05:22;53.61;47.95;65.89;;
68599;Laerm;18038;50.166;18.908;2023-04-24T16:08:32;53.26;48.12;72.69;;
68599;Laerm;18038;50.166;18.908;2023-04-24T16:11:38;52.94;47.85;61.82;;
68599;Laerm;18038;50.166;18.908;2023-04-24T16:14:45;53.39;47.99;63.65;;
68599;Laerm;18038;50.166;18.908;2023-04-24T16:17:51;51.69;47.75;64.83;;
68599;Laerm;18038;50.166;18.908;2023-04-24T16:20:58;51.94;47.36;61.88;;
68599;Laerm;18038;50.166;18.908;2023-04-24T16:24:07;53.58;47.37;64.18;;
68599;Laerm;18038;50.166;18.908;2023-04-24T16:27:14;51.81;47.83;57.82;;
68599;Laerm;18038;50.166;18.908;2023-04-24T16:30:21;52.75;47.78;61.91;;
68599;Laerm;18038;50.166;18.908;2023-04-24T16:33:27;51.69;47.61;67.03;;
68599;Laerm;18038;50.166;18.908;2023-04-24T16:36:34;52.47;47.53;66.37;;
68599;Laerm;18038;50.166;18.908;2023-04-24T16:39:44;54.34;47.65;68.72;;
68599;Laerm;18038;50.166;18.908;2023-04-24T16:42:50;51.89;47.94;57.63;;
68599;Laerm;18038;50.166;18.908;2023-04-24T16:46:11;51.55;47.51;58.37;;
68599;Laerm;18038;50.166;18.908;2023-04-24T16:49:17;51.47;47.66;57.02;;
68599;Laerm;18038;50.166;18.908;2023-04-24T16:52:23;52.36;48.14;63.83;;
68599;Laerm;18038;50.166;18.908;2023-04-24T16:55:32;51.36;47.26;60.62;;
68599;Laerm;18038;50.166;18.908;2023-04-24T16:58:39;52.16;47.66;61.30;;
68599;Laerm;18038;50.166;18.908;2023-04-24T17:01:45;51.51;47.48;58.45;;
68599;Laerm;18038;50.166;18.908;2023-04-24T17:04:52;52.09;48.16;63.74;;
68599;Laerm;18038;50.166;18.908;2023-04-24T17:07:58;51.82;48.18;60.69;;
68599;Laerm;18038;50.166;18.908;2023-04-24T17:11:08;51.92;47.71;60.70;;
68599;Laerm;18038;50.166;18.908;2023-04-24T17:14:14;51.41;47.51;61.95;;
68599;Laerm;18038;50.166;18.908;2023-04-24T17:17:21;52.89;47.19;65.58;;
68599;Laerm;18038;50.166;18.908;2023-04-24T17:20:27;52.60;47.35;63.77;;
68599;Laerm;18038;50.166;18.908;2023-04-24T17:23:35;51.60;47.14;63.50;;